Terminal Aerodrome Forecast
Issued by NWS Jackson, MS

Home | Current Version | Previous Version | Text Only | Print | Product List | Glossary On
Versions: 1 2 3 4 5 6 7 8 9 10 11 12 13
421
FTUS44 KJAN 230535
TAFGLH
TAF
KGLH 230535Z 2306/2406 34010KT P6SM BKN015 BKN090
     FM231000 33010G18KT P6SM BKN015 OVC050
     FM231400 34013G24KT P6SM BKN015 BKN025
     FM231700 35013G30KT P6SM SCT025
     FM240100 35008KT P6SM FEW250=

USA.gov is the U.S. government's official web portal to all federal, state and local government web resources and services.